Time;durP1;ratioP1;P1;durP2;ratioP2;P2;SDS_P1;SDS_P2;PMS_P1;PMS_P2;Temp;Humidity;BMP_temperature;BMP_pressure;BME280_temperature;BME280_humidity;BME280_pressure;Samples;Min_cycle;Max_cycle;Signal;HPM_P1;HPM_P2
2024/03/29 09:36:19;;;;;;;9.40;5.05;;;14.80;80.60;;;;;;1939894;73;27665;-51
2024/03/29 09:38:48;;;;;;;9.93;3.98;;;14.60;81.50;;;;;;1900321;74;21055;-47
2024/03/29 09:41:23;;;;;;;10.03;3.92;;;14.60;83.10;;;;;;1900214;75;21086;-56
2024/03/29 09:43:50;;;;;;;15.55;5.85;;;14.60;83.90;;;;;;1898521;74;21550;-54
2024/03/29 09:46:19;;;;;;;15.43;6.35;;;14.60;85.10;;;;;;1896914;75;21094;-47
2024/03/29 09:48:49;;;;;;;15.90;6.25;;;14.60;86.10;;;;;;1901818;75;21512;-53
2024/03/29 09:51:20;;;;;;;15.45;5.70;;;14.50;87.80;;;;;;1901528;75;21030;-54
2024/03/29 09:53:50;;;;;;;13.98;6.00;;;14.50;88.60;;;;;;1902611;75;21015;-53
2024/03/29 09:56:20;;;;;;;12.10;5.83;;;14.50;89.00;;;;;;1902878;75;21096;-51
2024/03/29 09:58:49;;;;;;;12.47;4.83;;;14.40;90.20;;;;;;1902433;75;21076;-58
2024/03/29 10:01:18;;;;;;;9.85;3.47;;;14.40;90.00;;;;;;1911633;75;21073;-57
2024/03/29 10:03:54;;;;;;;10.95;3.50;;;14.40;90.20;;;;;;1902180;75;21546;-50
2024/03/29 10:06:21;;;;;;;9.20;3.40;;;14.30;90.20;;;;;;1899532;75;21102;-58
2024/03/29 10:08:54;;;;;;;13.78;3.20;;;14.30;90.50;;;;;;1899542;75;22602;-50
2024/03/29 10:11:23;;;;;;;8.50;3.72;;;14.30;90.90;;;;;;1903091;75;21203;-52
2024/03/29 10:13:52;;;;;;;9.25;4.90;;;14.20;91.20;;;;;;1900433;75;21049;-52
2024/03/29 10:16:23;;;;;;;8.45;2.83;;;14.20;91.50;;;;;;1899773;75;21132;-50
2024/03/29 10:18:52;;;;;;;10.40;3.33;;;14.20;91.80;;;;;;1900499;75;21079;-56
2024/03/29 10:21:24;;;;;;;10.50;3.55;;;14.20;91.90;;;;;;1902572;75;21026;-54
2024/03/29 10:23:53;;;;;;;6.33;3.10;;;14.20;92.20;;;;;;1905347;75;21031;-53
2024/03/29 10:26:23;;;;;;;9.68;3.15;;;14.20;93.00;;;;;;1899473;75;21448;-59
2024/03/29 10:29:00;;;;;;;6.85;2.65;;;14.20;92.50;;;;;;1901331;75;21042;-53
2024/03/29 10:31:40;;;;;;;12.45;3.58;;;14.20;92.90;;;;;;1898244;75;21018;-55
2024/03/29 10:34:10;;;;;;;17.40;3.65;;;14.30;93.60;;;;;;1899471;75;21105;-52
2024/03/29 10:36:39;;;;;;;7.62;2.92;;;14.30;93.80;;;;;;1885049;75;21046;-53
2024/03/29 10:39:12;;;;;;;10.85;4.03;;;14.40;94.00;;;;;;1878818;75;21128;-54
2024/03/29 10:41:46;;;;;;;5.97;2.60;;;14.40;94.20;;;;;;1879313;75;20994;-47
2024/03/29 10:44:15;;;;;;;9.70;2.50;;;14.50;93.70;;;;;;1883045;75;21041;-54
2024/03/29 10:46:47;;;;;;;10.25;2.47;;;14.50;94.60;;;;;;1884462;75;21025;-52
2024/03/29 10:49:16;;;;;;;8.95;2.65;;;14.60;94.30;;;;;;1886195;75;21022;-50
2024/03/29 10:51:45;;;;;;;6.47;2.72;;;14.60;95.10;;;;;;1899775;75;21018;-56
2024/03/29 10:54:14;;;;;;;8.20;3.35;;;14.70;94.40;;;;;;1893674;75;21079;-51
2024/03/29 10:56:46;;;;;;;9.58;3.25;;;14.70;94.60;;;;;;1868090;77;21080;-50
2024/03/29 10:59:29;;;;;;;10.85;2.70;;;14.80;94.70;;;;;;1867981;77;21044;-49
2024/03/29 11:02:00;;;;;;;8.18;2.90;;;14.90;94.40;;;;;;1868053;77;21523;-50
2024/03/29 11:04:32;;;;;;;8.78;2.37;;;15.00;94.70;;;;;;1867994;77;21079;-49
2024/03/29 11:07:04;;;;;;;10.30;2.65;;;15.10;94.40;;;;;;1868045;77;21029;-49
2024/03/29 11:09:35;;;;;;;13.78;2.87;;;15.10;94.50;;;;;;1868049;77;21488;-49
2024/03/29 11:12:06;;;;;;;5.70;2.25;;;15.20;94.50;;;;;;1868202;77;21091;-49
2024/03/29 11:14:50;;;;;;;9.05;3.02;;;15.20;94.70;;;;;;1868145;77;21125;-48
2024/03/29 11:17:20;;;;;;;8.00;2.80;;;15.30;94.70;;;;;;1867999;77;21069;-49
2024/03/29 11:19:49;;;;;;;7.15;2.40;;;15.30;94.40;;;;;;1868137;77;21037;-48
2024/03/29 11:22:19;;;;;;;8.68;3.62;;;15.40;94.40;;;;;;1868095;77;21087;-51
2024/03/29 11:24:49;;;;;;;6.97;3.20;;;15.40;94.50;;;;;;1868161;77;21119;-50
2024/03/29 11:27:20;;;;;;;11.08;2.80;;;15.40;94.20;;;;;;1868099;77;21073;-50
2024/03/29 11:29:50;;;;;;;10.43;3.27;;;15.50;94.50;;;;;;1867776;77;21455;-52
2024/03/29 11:32:38;;;;;;;9.00;2.45;;;15.50;94.30;;;;;;1868193;77;21111;-52
2024/03/29 11:35:08;;;;;;;13.18;3.10;;;15.60;94.60;;;;;;1867622;76;21080;-51
2024/03/29 11:37:40;;;;;;;10.58;3.17;;;15.60;94.40;;;;;;1872479;76;21455;-50
2024/03/29 11:40:14;;;;;;;12.45;3.17;;;15.60;94.40;;;;;;1872983;77;21085;-50
2024/03/29 11:42:48;;;;;;;19.02;4.87;;;15.60;94.40;;;;;;1873310;76;21043;-52
2024/03/29 11:45:17;;;;;;;14.70;4.63;;;15.70;94.40;;;;;;1873158;77;21066;-49
2024/03/29 11:47:47;;;;;;;13.55;4.20;;;15.80;94.50;;;;;;1872927;77;21477;-50
2024/03/29 11:50:16;;;;;;;14.95;4.12;;;15.80;94.50;;;;;;1872879;76;21038;-49
2024/03/29 11:52:45;;;;;;;14.43;5.15;;;15.80;94.40;;;;;;1872987;76;21019;-47
2024/03/29 11:55:15;;;;;;;29.05;6.12;;;15.90;94.40;;;;;;1872728;77;21015;-49
2024/03/29 11:57:43;;;;;;;14.13;4.80;;;15.90;94.70;;;;;;1872884;76;21012;-49
2024/03/29 12:00:13;;;;;;;11.80;4.12;;;16.00;94.70;;;;;;1872963;77;21111;-52
2024/03/29 12:02:42;;;;;;;17.17;5.33;;;16.00;94.70;;;;;;1872874;77;21075;-51
2024/03/29 12:05:12;;;;;;;34.63;14.83;;;16.10;94.60;;;;;;1872795;76;21077;-51
2024/03/29 12:07:41;;;;;;;19.75;5.42;;;16.10;94.60;;;;;;1872968;77;21015;-51
2024/03/29 12:10:11;;;;;;;16.70;5.37;;;16.10;94.70;;;;;;1872795;77;21002;-50
2024/03/29 12:12:42;;;;;;;13.28;3.90;;;16.20;94.90;;;;;;1872910;77;21085;-50
2024/03/29 12:15:10;;;;;;;21.97;5.53;;;16.30;94.80;;;;;;1872855;75;21027;-49
2024/03/29 12:17:42;;;;;;;14.03;3.72;;;16.40;94.80;;;;;;1872885;77;21023;-49
2024/03/29 12:20:12;;;;;;;12.98;4.53;;;16.60;94.80;;;;;;1872851;77;21043;-49
2024/03/29 12:22:41;;;;;;;17.00;3.52;;;16.70;94.80;;;;;;1873000;77;21015;-51
2024/03/29 12:25:10;;;;;;;19.02;4.50;;;16.80;94.70;;;;;;1872967;77;21054;-50
2024/03/29 12:27:39;;;;;;;18.57;3.85;;;16.90;94.50;;;;;;1872889;77;21052;-50
2024/03/29 12:30:08;;;;;;;19.40;3.52;;;17.00;94.50;;;;;;1872773;77;21070;-48
2024/03/29 12:32:38;;;;;;;16.67;4.72;;;17.10;94.50;;;;;;1872794;77;21055;-52
2024/03/29 12:35:12;;;;;;;20.72;5.12;;;17.20;94.40;;;;;;1872718;76;21148;-47
2024/03/29 12:37:56;;;;;;;18.95;5.72;;;17.40;94.40;;;;;;1886979;76;21081;-53
2024/03/29 12:40:26;;;;;;;28.60;5.15;;;17.50;94.30;;;;;;1891537;76;21018;-48
2024/03/29 12:42:55;;;;;;;18.52;4.50;;;17.70;94.20;;;;;;1891426;76;21010;-52
2024/03/29 12:45:30;;;;;;;18.92;5.17;;;17.80;93.90;;;;;;1891536;75;21034;-55
2024/03/29 12:47:55;;;;;;;15.85;4.10;;;;;;;;;;1890969;75;21514;-50
2024/03/29 12:50:25;;;;;;;20.37;4.03;;;;;;;;;;1891695;75;21104;-53
2024/03/29 12:53:00;;;;;;;19.77;4.37;;;;;;;;;;1891692;76;21014;-48
2024/03/29 12:55:31;;;;;;;17.92;4.35;;;;;;;;;;1891596;75;21006;-49
2024/03/29 12:58:00;;;;;;;30.05;5.37;;;;;;;;;;1891729;75;21027;-53
2024/03/29 13:00:28;;;;;;;20.00;5.40;;;;;;;;;;1891722;76;21111;-51
2024/03/29 13:02:57;;;;;;;43.15;5.50;;;;;;;;;;1891765;76;21019;-52
2024/03/29 13:05:26;;;;;;;22.27;4.72;;;;;;;;;;1891620;76;21046;-52
2024/03/29 13:07:54;;;;;;;25.68;5.35;;;;;;;;;;1891604;75;21104;-52
2024/03/29 13:10:24;;;;;;;26.68;5.17;;;;;;;;;;1891541;76;21046;-54
2024/03/29 13:12:52;;;;;;;20.97;3.80;;;;;;;;;;1891695;75;20986;-51
2024/03/29 13:15:24;;;;;;;20.35;5.37;;;;;;;;;;1891481;76;21030;-51
2024/03/29 13:17:52;;;;;;;21.80;4.22;;;;;;;;;;1891559;75;21487;-52
2024/03/29 13:20:21;;;;;;;28.70;6.00;;;;;;;;;;1891498;76;21019;-53
2024/03/29 13:22:50;;;;;;;28.27;6.65;;;;;;;;;;1891620;76;21014;-49
2024/03/29 13:25:20;;;;;;;25.05;5.72;;;;;;;;;;1891523;75;21116;-52
2024/03/29 13:27:53;;;;;;;16.75;3.95;;;;;;;;;;1891550;76;21144;-50
2024/03/29 13:30:21;;;;;;;19.40;4.42;;;;;;;;;;1891474;75;21492;-53
2024/03/29 13:32:50;;;;;;;21.50;6.30;;;;;;;;;;1891500;76;21042;-54
2024/03/29 13:35:21;;;;;;;56.68;26.27;;;;;;;;;;1891638;76;21139;-52
2024/03/29 13:37:49;;;;;;;15.25;4.72;;;;;;;;;;1880030;75;21106;-51
2024/03/29 13:40:19;;;;;;;24.87;5.12;;;;;;;;;;1873023;77;21094;-53
2024/03/29 13:42:48;;;;;;;16.87;4.05;;;;;;;;;;1872543;76;21018;-50
2024/03/29 13:45:17;;;;;;;24.20;3.77;;;;;;;;;;1872893;75;21066;-52
2024/03/29 13:47:48;;;;;;;27.85;5.10;;;;;;;;;;1872974;77;21015;-50
2024/03/29 13:50:17;;;;;;;24.43;4.62;;;;;;;;;;1872871;77;21023;-50
